createdAt,value
2019-02-12T00:01:01.828Z,3.15
2019-02-12T00:03:31.506Z,3.14
2019-02-12T00:06:01.235Z,3.13
2019-02-12T00:08:30.867Z,3.23
2019-02-12T00:11:00.573Z,3.22
2019-02-12T00:13:30.260Z,3.17
2019-02-12T00:16:01.914Z,3.14
2019-02-12T00:18:31.593Z,3.15
2019-02-12T00:21:08.900Z,3.16
2019-02-12T00:23:32.677Z,3.15
2019-02-12T00:26:02.396Z,3.23
2019-02-12T00:28:32.102Z,3.20
2019-02-12T00:31:01.810Z,3.14
2019-02-12T00:33:31.463Z,3.21
2019-02-12T00:36:01.193Z,3.23
2019-02-12T00:38:30.865Z,3.18
2019-02-12T00:41:00.587Z,3.23
2019-02-12T00:43:43.920Z,3.18
2019-02-12T00:46:13.823Z,3.25
2019-02-12T00:48:43.448Z,3.24
2019-02-12T00:51:17.704Z,3.32
2019-02-12T00:53:44.406Z,3.29
2019-02-12T00:56:14.106Z,3.38
2019-02-12T00:58:43.806Z,3.33
2019-02-12T01:01:13.503Z,3.36
2019-02-12T01:03:43.246Z,3.35
2019-02-12T01:06:12.985Z,3.38
2019-02-12T01:08:42.653Z,3.32
2019-02-12T01:11:13.400Z,3.34
2019-02-12T01:13:43.037Z,3.50
2019-02-12T01:16:12.711Z,3.47
2019-02-12T01:18:42.524Z,3.47
2019-02-12T01:21:12.414Z,3.43
2019-02-12T01:23:42.037Z,3.47
2019-02-12T01:26:11.679Z,3.54
2019-02-12T01:28:41.286Z,3.54
2019-02-12T01:31:10.982Z,3.51
2019-02-12T01:33:43.062Z,3.56
2019-02-12T01:36:17.035Z,3.59
2019-02-12T01:38:46.757Z,3.63
2019-02-12T01:41:16.460Z,3.58
2019-02-12T01:43:46.104Z,3.56
2019-02-12T01:46:15.787Z,3.56
2019-02-12T01:48:45.449Z,3.61
2019-02-12T01:51:15.141Z,3.65
2019-02-12T01:53:44.824Z,3.51
2019-02-12T01:56:14.542Z,3.48
2019-02-12T01:58:44.236Z,3.60
2019-02-12T02:01:16.911Z,3.52
2019-02-12T02:03:46.630Z,3.60
2019-02-12T02:06:16.431Z,3.55
2019-02-12T02:08:46.135Z,3.59
2019-02-12T02:11:15.793Z,3.62
2019-02-12T02:13:45.517Z,3.64
2019-02-12T02:16:15.166Z,3.63
2019-02-12T02:18:44.893Z,3.59
2019-02-12T02:21:16.100Z,3.61
2019-02-12T02:23:45.787Z,3.61
2019-02-12T02:26:15.446Z,3.65
2019-02-12T02:28:45.203Z,3.63
2019-02-12T02:31:14.949Z,3.67
2019-02-12T02:33:44.664Z,3.73
2019-02-12T02:36:14.332Z,3.76
2019-02-12T02:38:44.042Z,3.66
2019-02-12T02:41:13.757Z,3.67
2019-02-12T02:43:43.432Z,3.61
2019-02-12T02:46:13.156Z,3.59
2019-02-12T02:48:42.873Z,3.59
2019-02-12T02:51:12.538Z,3.54
2019-02-12T02:53:42.262Z,3.49
2019-02-12T02:56:11.910Z,3.51
2019-02-12T02:58:41.713Z,3.53
2019-02-12T03:01:11.403Z,3.52
2019-02-12T03:03:41.122Z,3.54
2019-02-12T03:06:10.819Z,3.58
2019-02-12T03:08:40.511Z,3.60
2019-02-12T03:11:10.349Z,3.52
2019-02-12T03:13:40.180Z,3.59
2019-02-12T03:16:10.121Z,3.53
2019-02-12T03:18:40.356Z,3.53
2019-02-12T03:21:10.164Z,3.53
2019-02-12T03:23:41.186Z,3.53
2019-02-12T03:26:11.339Z,3.50
2019-02-12T03:28:41.215Z,3.41
2019-02-12T03:31:11.209Z,3.40
2019-02-12T03:33:44.066Z,3.43
2019-02-12T03:36:13.925Z,3.31
2019-02-12T03:38:44.011Z,3.17
2019-02-12T03:41:15.300Z,3.06
2019-02-12T03:43:45.070Z,3.05
2019-02-12T03:46:14.698Z,3.14
2019-02-12T03:48:44.410Z,3.16
2019-02-12T03:51:14.095Z,3.16
2019-02-12T03:53:43.788Z,3.24
2019-02-12T03:56:13.476Z,3.30
2019-02-12T03:58:43.190Z,3.28
2019-02-12T04:01:14.517Z,3.26
2019-02-12T04:03:45.255Z,3.28
2019-02-12T04:06:14.990Z,3.26
2019-02-12T04:08:44.648Z,3.22
2019-02-12T04:11:14.344Z,3.25
2019-02-12T04:13:44.064Z,3.21
2019-02-12T04:16:13.748Z,3.19
2019-02-12T04:18:43.451Z,3.21
2019-02-12T04:21:13.113Z,3.12
2019-02-12T04:23:42.852Z,3.06
2019-02-12T04:26:12.556Z,3.14
2019-02-12T04:28:42.290Z,3.09
2019-02-12T04:31:11.982Z,3.01
2019-02-12T04:33:41.645Z,2.93
2019-02-12T04:36:11.342Z,2.93
2019-02-12T04:38:45.906Z,2.97
2019-02-12T04:41:15.543Z,2.97
2019-02-12T04:43:45.245Z,3.01
2019-02-12T04:46:14.945Z,3.07
2019-02-12T04:48:44.657Z,2.99
2019-02-12T04:51:14.335Z,2.97
2019-02-12T04:53:44.043Z,2.99
2019-02-12T04:56:13.724Z,3.14
2019-02-12T04:58:43.459Z,3.04
2019-02-12T05:01:13.140Z,3.13
2019-02-12T05:03:42.819Z,3.09
2019-02-12T05:06:12.512Z,3.16
2019-02-12T05:09:06.677Z,3.39
2019-02-12T05:11:36.344Z,3.34
2019-02-12T05:14:06.036Z,3.39
2019-02-12T05:16:35.729Z,3.32
2019-02-12T05:19:05.411Z,3.28
2019-02-12T05:21:35.281Z,3.26
2019-02-12T05:24:04.969Z,3.36
2019-02-12T05:26:34.648Z,3.29
2019-02-12T05:29:04.355Z,3.27
2019-02-12T05:31:34.090Z,3.23
2019-02-12T05:34:03.770Z,3.25
2019-02-12T05:36:33.527Z,3.39
2019-02-12T05:39:04.199Z,3.34
2019-02-12T05:41:33.907Z,3.33
2019-02-12T05:44:03.598Z,3.36
2019-02-12T05:46:33.297Z,3.41
2019-02-12T05:49:02.982Z,3.40
2019-02-12T05:51:32.690Z,3.41
2019-02-12T05:54:02.380Z,3.35
2019-02-12T05:56:32.093Z,3.26
2019-02-12T05:59:01.808Z,3.33
2019-02-12T06:01:31.508Z,3.42
2019-02-12T06:04:01.204Z,3.40
2019-02-12T06:06:30.887Z,3.36
2019-02-12T06:09:00.576Z,3.32
2019-02-12T06:11:30.298Z,3.34
2019-02-12T06:13:59.976Z,3.25
2019-02-12T06:16:29.711Z,3.21
2019-02-12T06:18:59.404Z,3.22
2019-02-12T06:21:29.113Z,3.19
2019-02-12T06:23:58.815Z,3.08
2019-02-12T06:26:28.528Z,3.03
2019-02-12T06:28:58.222Z,3.03
2019-02-12T06:31:28.002Z,3.09
2019-02-12T06:33:57.694Z,3.04
2019-02-12T06:36:27.527Z,3.04
2019-02-12T06:39:01.072Z,3.17
2019-02-12T06:41:30.766Z,3.20
2019-02-12T06:44:00.462Z,3.17
2019-02-12T06:46:30.218Z,3.18
2019-02-12T06:48:59.905Z,3.26
2019-02-12T06:51:29.606Z,3.24
2019-02-12T06:53:59.310Z,3.21
2019-02-12T06:56:29.022Z,3.29
2019-02-12T06:58:58.697Z,3.30
2019-02-12T07:01:28.385Z,3.29
2019-02-12T07:03:59.327Z,3.23
2019-02-12T07:06:35.162Z,3.14
2019-02-12T07:09:13.875Z,3.04
2019-02-12T07:11:49.814Z,3.01
2019-02-12T07:14:40.821Z,2.98
2019-02-12T07:17:25.870Z,3.02
2019-02-12T07:20:16.500Z,3.06
2019-02-12T07:23:07.203Z,2.93
2019-02-12T07:25:48.967Z,2.89
2019-02-12T07:28:36.548Z,2.86
2019-02-12T07:31:38.022Z,2.92
2019-02-12T07:34:16.753Z,2.90
2019-02-12T07:36:58.325Z,3.00
2019-02-12T07:39:46.144Z,3.03
2019-02-12T07:42:30.614Z,3.02
2019-02-12T07:45:03.339Z,3.21
2019-02-12T07:47:52.416Z,3.31
2019-02-12T07:50:40.496Z,3.38
2019-02-12T07:53:31.196Z,3.28
2019-02-12T07:56:16.675Z,3.38
2019-02-12T07:59:08.945Z,3.42
2019-02-12T08:01:41.814Z,3.44
2019-02-12T08:04:40.414Z,3.43
2019-02-12T08:07:13.167Z,3.40
2019-02-12T08:10:01.033Z,3.54
2019-02-12T08:12:33.788Z,3.64
2019-02-12T08:15:06.545Z,3.60
2019-02-12T08:18:04.352Z,3.68
2019-02-12T08:20:51.404Z,3.72
2019-02-12T08:23:42.127Z,3.76
2019-02-12T08:26:19.095Z,3.81
2019-02-12T08:29:25.010Z,3.84
2019-02-12T08:32:13.209Z,3.86
2019-02-12T08:35:05.707Z,3.89
2019-02-12T08:37:44.660Z,3.94
2019-02-12T08:40:33.811Z,4.01
2019-02-12T08:54:49.620Z,4.18
2019-02-12T09:01:31.663Z,4.22
2019-02-12T09:04:12.989Z,4.32
2019-02-12T09:06:54.736Z,4.39
2019-02-12T09:09:53.032Z,4.38
2019-02-12T09:12:28.473Z,4.40
2019-02-12T09:15:23.915Z,4.46
2019-02-12T09:18:08.198Z,4.50
2019-02-12T09:20:53.027Z,4.52
2019-02-12T09:23:34.804Z,4.55
2019-02-12T09:26:25.732Z,4.58
2019-02-12T09:28:58.509Z,4.58
2019-02-12T09:31:52.679Z,4.58
2019-02-12T09:34:42.124Z,4.64
2019-02-12T09:37:34.034Z,4.73
2019-02-12T09:40:07.062Z,4.63
2019-02-12T09:42:57.099Z,4.68
2019-02-12T09:45:35.703Z,4.75
2019-02-12T09:48:08.467Z,4.83
2019-02-12T09:50:46.967Z,4.94
2019-02-12T09:53:36.244Z,4.99
2019-02-12T09:56:35.631Z,5.03
2019-02-12T09:59:19.787Z,5.11
2019-02-12T10:02:15.229Z,5.13
2019-02-12T10:04:56.951Z,5.19
2019-02-12T10:07:35.099Z,5.13
2019-02-12T10:10:19.612Z,5.16
2019-02-12T10:12:55.173Z,5.16
2019-02-12T10:15:36.776Z,5.32
2019-02-12T10:18:25.873Z,5.22
2019-02-12T10:21:07.525Z,5.30
2019-02-12T10:23:56.661Z,5.32
2019-02-12T10:26:32.130Z,5.32
2019-02-12T10:45:56.132Z,5.48
2019-02-12T10:48:25.842Z,5.54
2019-02-12T10:50:55.556Z,5.74
2019-02-12T10:53:25.262Z,5.70
2019-02-12T10:55:54.949Z,5.64
2019-02-12T10:58:24.652Z,5.67
2019-02-12T11:04:32.430Z,5.86
2019-02-12T11:07:02.111Z,6.05
2019-02-12T11:09:31.828Z,6.16
2019-02-12T11:12:01.532Z,6.32
2019-02-12T11:14:31.362Z,6.18
2019-02-12T11:17:01.130Z,6.12
2019-02-12T11:19:30.805Z,6.07
2019-02-12T11:22:00.545Z,6.06
2019-02-12T11:24:35.480Z,6.13
2019-02-12T11:27:01.751Z,6.11
2019-02-12T11:29:31.833Z,6.18
2019-02-12T11:32:01.548Z,6.24
2019-02-12T11:34:31.244Z,6.19
2019-02-12T11:37:00.914Z,6.27
2019-02-12T11:39:30.634Z,6.34
2019-02-12T11:42:00.320Z,6.37
2019-02-12T11:44:30.051Z,6.40
2019-02-12T11:46:59.724Z,6.43
2019-02-12T11:49:29.429Z,6.41
2019-02-12T11:51:59.810Z,6.50
2019-02-12T11:54:29.673Z,6.47
2019-02-12T11:56:59.353Z,6.42
2019-02-12T11:59:29.107Z,6.55
2019-02-12T12:01:58.811Z,6.55
2019-02-12T12:04:28.526Z,6.48
2019-02-12T12:06:58.211Z,6.52
2019-02-12T12:09:27.921Z,6.57
2019-02-12T12:11:57.611Z,6.61
2019-02-12T12:14:30.380Z,6.71
2019-02-12T12:17:00.069Z,6.70
2019-02-12T12:19:30.122Z,6.56
2019-02-12T12:21:59.898Z,6.67
2019-02-12T12:24:29.659Z,6.67
2019-02-12T12:26:59.328Z,6.77
2019-02-12T12:29:29.065Z,6.81
2019-02-12T12:31:58.834Z,6.75
2019-02-12T12:34:28.592Z,6.80
2019-02-12T12:36:58.259Z,6.80
2019-02-12T12:39:28.032Z,7.00
2019-02-12T12:41:57.736Z,7.01
2019-02-12T12:44:27.428Z,7.06
2019-02-12T12:46:57.111Z,7.39
2019-02-12T12:49:27.313Z,7.15
2019-02-12T12:51:57.217Z,7.10
2019-02-12T12:54:26.948Z,7.04
2019-02-12T12:56:56.966Z,7.10
2019-02-12T12:59:26.649Z,7.12
2019-02-12T13:01:56.331Z,7.26
2019-02-12T13:04:26.047Z,7.19
2019-02-12T13:06:55.769Z,7.23
2019-02-12T13:09:25.458Z,7.27
2019-02-12T13:11:55.151Z,7.26
2019-02-12T13:14:24.871Z,7.15
2019-02-12T13:16:54.550Z,6.97
2019-02-12T13:19:42.432Z,7.07
2019-02-12T13:22:12.126Z,6.99
2019-02-12T13:24:41.885Z,7.09
2019-02-12T13:27:11.874Z,7.20
2019-02-12T13:29:41.556Z,7.28
2019-02-12T13:32:11.257Z,7.16
2019-02-12T13:34:41.034Z,7.27
2019-02-12T13:37:16.975Z,7.19
2019-02-12T13:39:48.681Z,7.11
2019-02-12T13:42:18.364Z,7.08
2019-02-12T13:44:48.044Z,7.11
2019-02-12T13:47:17.710Z,7.10
2019-02-12T13:49:47.443Z,7.10
2019-02-12T13:52:17.159Z,7.06
2019-02-12T13:54:46.827Z,7.08
2019-02-12T13:57:16.466Z,7.04
2019-02-12T13:59:46.193Z,7.11
2019-02-12T14:02:15.875Z,7.08
2019-02-12T14:04:45.619Z,7.05
2019-02-12T14:07:15.322Z,6.98
2019-02-12T14:09:45.027Z,7.00
2019-02-12T14:12:15.825Z,6.96
2019-02-12T14:14:45.733Z,6.93
2019-02-12T14:17:15.433Z,6.98
2019-02-12T14:19:45.180Z,6.90
2019-02-12T14:22:14.940Z,6.94
2019-02-12T14:24:44.644Z,6.91
2019-02-12T14:27:14.336Z,7.05
2019-02-12T14:29:44.032Z,6.98
2019-02-12T14:32:13.853Z,7.03
2019-02-12T14:34:43.599Z,6.94
2019-02-12T14:37:13.301Z,6.95
2019-02-12T14:39:42.975Z,6.98
2019-02-12T14:42:12.695Z,6.96
2019-02-12T14:44:42.390Z,6.96
2019-02-12T14:47:14.173Z,6.98
2019-02-12T14:49:43.838Z,6.91
2019-02-12T14:52:13.628Z,6.90
2019-02-12T14:54:43.320Z,6.84
2019-02-12T14:57:13.031Z,6.86
2019-02-12T14:59:42.697Z,6.81
2019-02-12T15:02:12.376Z,6.78
2019-02-12T15:04:42.082Z,6.78
2019-02-12T15:07:13.757Z,6.81
2019-02-12T15:09:43.437Z,6.77
2019-02-12T15:12:13.247Z,6.75
2019-02-12T15:14:42.915Z,6.69
2019-02-12T15:17:12.814Z,6.66
2019-02-12T15:19:42.519Z,6.64
2019-02-12T15:22:12.244Z,6.64
2019-02-12T15:24:41.939Z,6.60
2019-02-12T15:27:11.687Z,6.57
2019-02-12T15:29:41.349Z,6.50
2019-02-12T15:32:11.061Z,6.53
2019-02-12T15:34:40.729Z,6.43
2019-02-12T15:37:10.442Z,6.35
2019-02-12T15:39:40.113Z,6.32
2019-02-12T15:42:09.805Z,6.26
2019-02-12T15:44:39.506Z,6.22
2019-02-12T15:47:09.214Z,6.27
2019-02-12T15:49:40.516Z,6.22
2019-02-12T15:52:10.226Z,6.16
2019-02-12T15:54:39.887Z,6.14
2019-02-12T15:57:09.605Z,6.10
2019-02-12T15:59:39.273Z,6.08
2019-02-12T16:02:09.690Z,6.04
2019-02-12T16:04:40.403Z,6.09
2019-02-12T16:07:10.077Z,5.99
2019-02-12T16:09:39.763Z,5.92
2019-02-12T16:12:09.443Z,5.93
2019-02-12T16:14:40.125Z,5.92
2019-02-12T16:17:12.370Z,5.98
2019-02-12T16:19:41.917Z,6.02
2019-02-12T16:22:11.616Z,5.96
2019-02-12T16:24:41.371Z,5.97
2019-02-12T16:27:11.128Z,6.02
2019-02-12T16:29:41.024Z,5.92
2019-02-12T16:32:13.597Z,5.91
2019-02-12T16:34:43.298Z,5.87
2019-02-12T16:37:12.987Z,5.82
2019-02-12T16:39:42.692Z,5.83
2019-02-12T16:42:12.427Z,5.97
2019-02-12T16:44:42.113Z,5.91
2019-02-12T16:47:11.820Z,5.90
2019-02-12T16:49:41.523Z,5.89
2019-02-12T16:52:11.345Z,5.96
2019-02-12T16:54:41.048Z,5.91
2019-02-12T16:57:10.743Z,6.02
2019-02-12T16:59:40.426Z,5.92
2019-02-12T17:02:11.764Z,5.91
2019-02-12T17:04:41.470Z,5.92
2019-02-12T17:07:11.224Z,5.89
2019-02-12T17:09:40.909Z,5.96
2019-02-12T17:12:10.599Z,5.99
2019-02-12T17:14:41.758Z,5.93
2019-02-12T17:17:11.468Z,5.85
2019-02-12T17:19:46.769Z,5.83
2019-02-12T17:22:16.468Z,5.86
2019-02-12T17:24:46.191Z,5.85
2019-02-12T17:27:15.891Z,5.84
2019-02-12T17:29:45.702Z,5.94
2019-02-12T17:32:15.412Z,5.90
2019-02-12T17:34:45.131Z,5.87
2019-02-12T17:37:14.874Z,5.91
2019-02-12T17:39:44.568Z,5.94
2019-02-12T17:42:14.358Z,5.93
2019-02-12T17:44:44.064Z,5.97
2019-02-12T17:47:13.767Z,5.96
2019-02-12T17:49:45.310Z,5.95
2019-02-12T17:52:15.081Z,5.98
2019-02-12T17:54:44.805Z,5.97
2019-02-12T17:57:14.476Z,5.99
2019-02-12T17:59:44.184Z,6.00
2019-02-12T18:02:13.965Z,5.99
2019-02-12T18:04:43.641Z,6.11
2019-02-12T18:07:13.349Z,6.11
2019-02-12T18:09:43.085Z,6.15
2019-02-12T18:12:12.799Z,6.04
2019-02-12T18:14:42.515Z,6.10
2019-02-12T18:17:12.201Z,6.06
2019-02-12T18:19:41.940Z,6.06
2019-02-12T18:22:11.706Z,6.02
2019-02-12T18:24:41.432Z,6.05
2019-02-12T18:27:11.120Z,6.06
2019-02-12T18:29:40.843Z,6.07
2019-02-12T18:32:10.537Z,6.07
2019-02-12T18:34:40.298Z,6.04
2019-02-12T18:37:10.007Z,6.00
2019-02-12T18:39:39.753Z,6.17
2019-02-12T18:42:09.437Z,6.07
2019-02-12T18:44:40.711Z,6.02
2019-02-12T18:47:10.372Z,6.01
2019-02-12T18:49:40.170Z,5.98
2019-02-12T18:52:11.803Z,5.92
2019-02-12T18:54:43.210Z,5.97
2019-02-12T18:57:12.920Z,5.99
2019-02-12T18:59:42.611Z,6.02
2019-02-12T19:02:12.301Z,5.94
2019-02-12T19:04:42.025Z,5.97
2019-02-12T19:07:11.738Z,5.99
2019-02-12T19:09:41.463Z,5.92
2019-02-12T19:12:11.218Z,5.92
2019-02-12T19:14:40.942Z,5.96
2019-02-12T19:17:10.797Z,5.95
2019-02-12T19:19:40.791Z,5.86
2019-02-12T19:22:10.625Z,5.87
2019-02-12T19:24:40.362Z,5.91
2019-02-12T19:27:10.075Z,5.84
2019-02-12T19:29:39.834Z,5.90
2019-02-12T19:32:09.528Z,5.81
2019-02-12T19:34:39.225Z,5.92
2019-02-12T19:37:08.950Z,5.77
2019-02-12T19:39:38.744Z,5.86
2019-02-12T19:42:08.458Z,5.79
2019-02-12T19:44:38.164Z,5.80
2019-02-12T19:47:07.875Z,5.71
2019-02-12T19:49:37.580Z,5.75
2019-02-12T19:52:07.345Z,5.73
2019-02-12T19:54:37.076Z,5.75
2019-02-12T19:57:06.962Z,5.79
2019-02-12T19:59:36.655Z,5.75
2019-02-12T20:02:06.535Z,5.73
2019-02-12T20:04:37.895Z,5.81
2019-02-12T20:07:07.618Z,5.79
2019-02-12T20:09:38.823Z,5.84
2019-02-12T20:12:09.577Z,5.81
2019-02-12T20:14:39.271Z,5.85
2019-02-12T20:17:08.994Z,5.77
2019-02-12T20:19:38.735Z,5.77
2019-02-12T20:22:08.505Z,5.83
2019-02-12T20:24:38.227Z,5.82
2019-02-12T20:27:07.947Z,5.78
2019-02-12T20:29:37.661Z,5.80
2019-02-12T20:32:08.671Z,5.83
2019-02-12T20:34:38.373Z,5.80
2019-02-12T20:37:08.097Z,5.79
2019-02-12T20:39:37.774Z,5.84
2019-02-12T20:42:07.493Z,5.85
2019-02-12T20:44:37.173Z,5.86
2019-02-12T20:47:06.954Z,5.83
2019-02-12T20:49:36.629Z,5.96
2019-02-12T20:52:06.373Z,5.89
2019-02-12T20:54:36.525Z,5.97
2019-02-12T20:57:06.227Z,5.90
2019-02-12T20:59:35.914Z,5.95
2019-02-12T21:02:05.641Z,5.91
2019-02-12T21:04:35.335Z,5.85
2019-02-12T21:07:05.030Z,5.95
2019-02-12T21:09:34.759Z,5.91
2019-02-12T21:12:04.610Z,5.89
2019-02-12T21:14:34.393Z,5.93
2019-02-12T21:17:04.158Z,5.93
2019-02-12T21:19:33.897Z,5.90
2019-02-12T21:22:03.571Z,5.87
2019-02-12T21:24:33.319Z,5.91
2019-02-12T21:27:03.023Z,5.86
2019-02-12T21:29:32.711Z,5.97
2019-02-12T21:32:02.408Z,5.97
2019-02-12T21:34:32.121Z,5.93
2019-02-12T21:37:01.843Z,6.09
2019-02-12T21:39:31.576Z,6.13
2019-02-12T21:42:01.294Z,6.15
2019-02-12T21:44:31.010Z,6.10
2019-02-12T21:47:00.687Z,6.14
2019-02-12T21:49:30.379Z,6.21
2019-02-12T21:52:00.080Z,6.19
2019-02-12T21:54:29.896Z,6.36
2019-02-12T21:56:59.600Z,6.31
2019-02-12T21:59:29.377Z,6.27
2019-02-12T22:01:59.143Z,6.29
2019-02-12T22:04:29.849Z,6.24
2019-02-12T22:06:59.542Z,6.34
2019-02-12T22:09:29.283Z,6.30
2019-02-12T22:11:58.977Z,6.31
2019-02-12T22:14:28.712Z,6.29
2019-02-12T22:16:58.421Z,6.30
2019-02-12T22:19:28.107Z,6.33
2019-02-12T22:21:57.815Z,6.33
2019-02-12T22:24:27.532Z,6.32
2019-02-12T22:26:57.239Z,6.26
2019-02-12T22:29:26.914Z,6.35
2019-02-12T22:31:56.619Z,6.37
2019-02-12T22:34:26.579Z,6.37
2019-02-12T22:36:56.296Z,6.38
2019-02-12T22:39:26.075Z,6.39
2019-02-12T22:41:55.751Z,6.35
2019-02-12T22:44:25.462Z,6.35
2019-02-12T22:46:55.177Z,6.32
2019-02-12T22:49:24.921Z,6.31
2019-02-12T22:51:54.626Z,6.35
2019-02-12T22:54:24.415Z,6.33
2019-02-12T22:56:54.136Z,6.30
2019-02-12T22:59:23.836Z,6.33
2019-02-12T23:01:53.590Z,6.34
2019-02-12T23:04:23.306Z,6.32
2019-02-12T23:06:53.005Z,6.28
2019-02-12T23:09:22.689Z,6.28
2019-02-12T23:11:52.417Z,6.30
2019-02-12T23:14:22.098Z,6.35
2019-02-12T23:16:51.807Z,6.40
2019-02-12T23:19:21.472Z,6.39
2019-02-12T23:21:51.388Z,6.35
2019-02-12T23:24:21.059Z,6.34
2019-02-12T23:26:50.787Z,6.33
2019-02-12T23:29:20.550Z,6.33
2019-02-12T23:31:50.239Z,6.30
2019-02-12T23:34:19.943Z,6.27
2019-02-12T23:36:49.675Z,6.27
2019-02-12T23:39:19.420Z,6.21
2019-02-12T23:41:49.108Z,6.26
2019-02-12T23:44:18.866Z,6.16
2019-02-12T23:46:48.547Z,6.17
2019-02-12T23:49:18.260Z,6.14
2019-02-12T23:51:47.976Z,6.10
2019-02-12T23:54:17.667Z,6.08
2019-02-12T23:56:47.364Z,6.06
2019-02-12T23:59:17.046Z,6.06
